• Join FlightAware (Why Join?)
  • Login
  • US Flag 
05:15AM EDT


 

Airport Tracker/Info


-or-


 

Live Flight TrackerFlight Track Log ✈ N612CT ✈ 20-Sep-2013 ✈ KLEE - KAPF

Flight Track Log - Related Links

Times and Time Zones

All times are in EDT time to prevent confusion due to time zone crossing. See the N612CT flight status page for this flight to view local times or setup timezone preferences in your user account.

Time Position Orientation Groundspeed Altitude Reporting Facility
EDT Latitude Longitude Course Direction KTS MPH feet Rate Location/Type
12:45PM 28.7667 -81.7167 139° Southeast 143 165 2,000  Level Orlando TRACON
12:46PM 28.7333 -81.6833 139° Southeast 140 161 2,600 480 Climbing Orlando TRACON
12:47PM 28.7000 -81.7000 204° Southwest 134 154 3,100 600 Climbing Orlando TRACON
12:48PM 28.6667 -81.7000 180° South 137 158 3,800 780 Climbing Orlando TRACON
12:49PM 28.6167 -81.7000 180° South 136 157 4,700 840 Climbing Orlando TRACON
12:50PM 28.5833 -81.7000 180° South 137 158 5,600 600 Climbing Orlando TRACON
12:51PM 28.5333 -81.7000 180° South 160 184 6,000 180 Climbing Orlando TRACON
12:52PM 28.4833 -81.7000 180° South 171 197 6,000  Level Orlando TRACON
12:53PM 28.4333 -81.6833 164° South 174 200 6,000  Level Orlando TRACON
12:54PM 28.4000 -81.6833 180° South 171 197 6,000  Level Orlando TRACON
12:55PM 28.3500 -81.6833 180° South 169 194 6,000  Level Orlando TRACON
12:56PM 28.3000 -81.6833 180° South 171 197 6,000  Level Orlando TRACON
12:57PM 28.2500 -81.6833 180° South 171 197 6,000 240 Level Orlando TRACON
12:58PM 28.2167 -81.6667 156° South 158 182 6,500 480 Climbing Orlando TRACON
12:59PM 28.1667 -81.6667 180° South 140 161 7,000 240 Climbing Orlando TRACON
01:00PM 28.1333 -81.6500 156° South 159 183 7,000  Level Orlando TRACON
01:02PM 28.0531 -81.6067 155° Southeast 172 198 7,000 -180 Level Miami Center
01:03PM 28.0161 -81.5886 157° South 172 198 6,600 -540 Descending Miami Center
01:04PM 27.9536 -81.5858 178° South 177 204 6,000 -300 Descending Miami Center
01:05PM 27.9036 -81.5861 180° South 183 211 6,000  Level Miami Center
01:06PM 27.8639 -81.5892 184° South 183 211 6,000  Level Miami Center
01:07PM 27.8094 -81.5942 185° South 183 211 6,000  Level Miami Center
01:08PM 27.7614 -81.5944 180° South 183 211 6,000  Level Miami Center
01:09PM 27.7133 -81.5972 183° South 183 211 6,000  Level Miami Center
01:10PM 27.6631 -81.6019 185° South 183 211 6,000  Level Miami Center
01:11PM 27.6150 -81.6047 183° South 183 211 6,000  Level Miami Center
01:12PM 27.5689 -81.6075 183° South 183 211 6,000  Level Miami Center
01:13PM 27.5208 -81.6103 183° South 183 211 6,000  Level Miami Center
01:14PM 27.4728 -81.6128 183° South 183 211 6,000  Level Miami Center
01:15PM 27.4225 -81.6156 183° South 183 211 6,000  Level Miami Center
01:16PM 27.3744 -81.6206 185° South 183 211 6,000 120 Level Miami Center
01:17PM 27.3286 -81.6211 181° South 178 205 6,300 300 Climbing Miami Center
01:18PM 27.2889 -81.6239 184° South 172 198 6,700 300 Climbing Miami Center
01:19PM 27.2447 -81.6269 184° South 162 186 7,000 120 Climbing Miami Center
01:20PM 27.1967 -81.6294 183° South 162 186 7,000  Level Miami Center
01:21PM 27.1464 -81.6344 185° South 167 192 7,100  Climbing Miami Center
01:22PM 27.0964 -81.6369 183° South 173 199 7,000  Descending Miami Center
01:23PM 27.0483 -81.6397 183° South 179 206 7,100  Climbing Miami Center
01:24PM 26.9942 -81.6306 171° South 179 206 7,100  Level Miami Center
01:25PM 26.9486 -81.6169 165° South 179 206 7,100  Level Miami Center
01:26PM 26.9033 -81.6036 165° South 179 206 7,100  Level Miami Center
01:27PM 26.8556 -81.5900 166° South 179 206 7,100  Level Miami Center
01:28PM 26.8103 -81.5764 165° South 179 206 7,100  Level Miami Center
01:29PM 26.7625 -81.5653 168° South 179 206 7,100  Level Miami Center
01:31PM 26.7039 -81.6094 214° Southwest  Level FlightAware Approximate
01:38PM 26.3492 -81.7307 189° South  Level FlightAware Approximate
01:39PM 26.2974 -81.7393 188° South  Level FlightAware Approximate
01:40PM 26.2457 -81.7479 188° South  Level FlightAware Approximate
01:41PM 26.1941 -81.7579 190° South  Level FlightAware Approximate
01:42PM 26.1500 -81.7667 190° South  Level FlightAware Approximate
01:43PM 26.1524 -81.7756 190° South  Level Estimated
01:44PM 26.1524 -81.7756 190° South  Level Estimated
01:45PM 26.1524 -81.7756 190° South  Level Estimated
01:46PM 26.1524 -81.7756 190° South  Level Estimated
01:47PM 26.1524 -81.7756 190° South  Level Estimated
01:48PM 26.1524 -81.7756 190° South  Level Estimated
01:49PM 26.1524 -81.7756 190° South  Level Estimated
01:50PM 26.1524 -81.7756 190° South  Level Estimated
01:51PM 26.1524 -81.7756 190° South  Level Estimated
01:52PM 26.1524 -81.7756 190° South  Level Estimated
01:53PM 26.1524 -81.7756 190° South  Level Estimated